sensor_id;sensor_type;location;lat;lon;timestamp;temperature;humidity
7028;DHT22;3555;53.248;10.336;2023-03-23T00:00:59;10.60;99.90
7028;DHT22;3555;53.248;10.336;2023-03-23T00:03:27;10.60;99.90
7028;DHT22;3555;53.248;10.336;2023-03-23T00:05:57;10.60;99.90
7028;DHT22;3555;53.248;10.336;2023-03-23T00:08:32;10.50;99.90
7028;DHT22;3555;53.248;10.336;2023-03-23T00:10:59;10.40;99.90
7028;DHT22;3555;53.248;10.336;2023-03-23T00:13:28;10.40;99.90
7028;DHT22;3555;53.248;10.336;2023-03-23T00:15:55;10.40;99.90
7028;DHT22;3555;53.248;10.336;2023-03-23T00:18:23;10.40;99.90
7028;DHT22;3555;53.248;10.336;2023-03-23T00:20:52;10.30;99.90
7028;DHT22;3555;53.248;10.336;2023-03-23T00:23:20;10.30;99.90
7028;DHT22;3555;53.248;10.336;2023-03-23T00:25:51;10.30;99.90
7028;DHT22;3555;53.248;10.336;2023-03-23T00:28:20;10.60;99.90
7028;DHT22;3555;53.248;10.336;2023-03-23T00:30:54;10.30;99.90
7028;DHT22;3555;53.248;10.336;2023-03-23T00:33:22;10.30;99.90
7028;DHT22;3555;53.248;10.336;2023-03-23T00:35:49;10.40;99.90
7028;DHT22;3555;53.248;10.336;2023-03-23T00:38:18;10.30;99.90
7028;DHT22;3555;53.248;10.336;2023-03-23T00:40:45;10.40;99.90
7028;DHT22;3555;53.248;10.336;2023-03-23T00:43:14;10.30;99.90
7028;DHT22;3555;53.248;10.336;2023-03-23T00:45:41;10.30;99.90
7028;DHT22;3555;53.248;10.336;2023-03-23T00:48:10;10.30;99.90
7028;DHT22;3555;53.248;10.336;2023-03-23T00:50:37;10.20;99.90
7028;DHT22;3555;53.248;10.336;2023-03-23T00:53:07;10.20;99.90
7028;DHT22;3555;53.248;10.336;2023-03-23T00:55:34;10.20;99.90
7028;DHT22;3555;53.248;10.336;2023-03-23T00:58:01;10.20;99.90
7028;DHT22;3555;53.248;10.336;2023-03-23T01:00:29;10.20;99.90
7028;DHT22;3555;53.248;10.336;2023-03-23T01:02:56;10.20;99.90
7028;DHT22;3555;53.248;10.336;2023-03-23T01:05:22;10.10;99.90
7028;DHT22;3555;53.248;10.336;2023-03-23T01:07:49;10.10;99.90
7028;DHT22;3555;53.248;10.336;2023-03-23T01:10:16;10.10;99.90
7028;DHT22;3555;53.248;10.336;2023-03-23T01:12:44;10.20;99.90
7028;DHT22;3555;53.248;10.336;2023-03-23T01:15:15;10.20;99.90
7028;DHT22;3555;53.248;10.336;2023-03-23T01:17:44;10.20;99.90
7028;DHT22;3555;53.248;10.336;2023-03-23T01:20:12;10.20;99.90
7028;DHT22;3555;53.248;10.336;2023-03-23T01:22:40;10.10;99.90
7028;DHT22;3555;53.248;10.336;2023-03-23T01:25:08;10.20;99.90
7028;DHT22;3555;53.248;10.336;2023-03-23T01:27:36;10.10;99.90
7028;DHT22;3555;53.248;10.336;2023-03-23T01:30:03;10.20;99.90
7028;DHT22;3555;53.248;10.336;2023-03-23T01:32:31;10.20;99.90
7028;DHT22;3555;53.248;10.336;2023-03-23T01:35:00;10.20;99.90
7028;DHT22;3555;53.248;10.336;2023-03-23T01:37:27;10.30;99.90
7028;DHT22;3555;53.248;10.336;2023-03-23T01:39:54;10.10;99.90
7028;DHT22;3555;53.248;10.336;2023-03-23T01:42:22;10.00;99.90
7028;DHT22;3555;53.248;10.336;2023-03-23T01:48:00;9.90;99.90
7028;DHT22;3555;53.248;10.336;2023-03-23T01:50:31;10.00;99.90
7028;DHT22;3555;53.248;10.336;2023-03-23T01:53:01;10.00;99.90
7028;DHT22;3555;53.248;10.336;2023-03-23T01:55:32;10.00;99.90
7028;DHT22;3555;53.248;10.336;2023-03-23T01:57:59;9.90;99.90
7028;DHT22;3555;53.248;10.336;2023-03-23T02:00:26;9.90;99.90
7028;DHT22;3555;53.248;10.336;2023-03-23T02:02:54;9.90;99.90
7028;DHT22;3555;53.248;10.336;2023-03-23T02:05:30;9.90;99.90
7028;DHT22;3555;53.248;10.336;2023-03-23T02:08:00;9.90;99.90
7028;DHT22;3555;53.248;10.336;2023-03-23T02:10:29;9.90;99.90
7028;DHT22;3555;53.248;10.336;2023-03-23T02:12:56;9.90;99.90
7028;DHT22;3555;53.248;10.336;2023-03-23T02:15:24;9.90;99.90
7028;DHT22;3555;53.248;10.336;2023-03-23T02:17:57;10.00;99.90
7028;DHT22;3555;53.248;10.336;2023-03-23T02:20:44;9.90;99.90
7028;DHT22;3555;53.248;10.336;2023-03-23T02:26:35;9.90;99.90
7028;DHT22;3555;53.248;10.336;2023-03-23T02:29:15;9.80;99.90
7028;DHT22;3555;53.248;10.336;2023-03-23T02:31:56;9.80;99.90
7028;DHT22;3555;53.248;10.336;2023-03-23T02:34:29;9.80;99.90
7028;DHT22;3555;53.248;10.336;2023-03-23T02:36:59;9.90;99.90
7028;DHT22;3555;53.248;10.336;2023-03-23T02:39:30;9.90;99.90
7028;DHT22;3555;53.248;10.336;2023-03-23T02:42:04;9.90;99.90
7028;DHT22;3555;53.248;10.336;2023-03-23T02:44:34;9.90;99.90
7028;DHT22;3555;53.248;10.336;2023-03-23T02:47:04;9.90;99.90
7028;DHT22;3555;53.248;10.336;2023-03-23T02:49:36;9.90;99.90
7028;DHT22;3555;53.248;10.336;2023-03-23T02:52:08;10.00;99.90
7028;DHT22;3555;53.248;10.336;2023-03-23T02:54:39;10.00;99.90
7028;DHT22;3555;53.248;10.336;2023-03-23T02:57:07;10.10;99.90
7028;DHT22;3555;53.248;10.336;2023-03-23T02:59:33;10.10;99.90
7028;DHT22;3555;53.248;10.336;2023-03-23T03:02:05;10.10;99.90
7028;DHT22;3555;53.248;10.336;2023-03-23T03:04:35;10.20;99.90
7028;DHT22;3555;53.248;10.336;2023-03-23T03:07:32;10.10;99.90
7028;DHT22;3555;53.248;10.336;2023-03-23T03:10:08;10.10;99.90
7028;DHT22;3555;53.248;10.336;2023-03-23T03:12:44;10.10;99.90
7028;DHT22;3555;53.248;10.336;2023-03-23T03:15:21;10.10;99.90
7028;DHT22;3555;53.248;10.336;2023-03-23T03:17:55;10.20;99.90
7028;DHT22;3555;53.248;10.336;2023-03-23T03:20:26;10.20;99.90
7028;DHT22;3555;53.248;10.336;2023-03-23T03:22:54;10.20;99.90
7028;DHT22;3555;53.248;10.336;2023-03-23T03:25:22;10.20;99.90
7028;DHT22;3555;53.248;10.336;2023-03-23T03:27:50;10.30;99.90
7028;DHT22;3555;53.248;10.336;2023-03-23T03:30:21;10.20;99.90
7028;DHT22;3555;53.248;10.336;2023-03-23T03:32:52;10.20;99.90
7028;DHT22;3555;53.248;10.336;2023-03-23T03:35:21;10.20;99.90
7028;DHT22;3555;53.248;10.336;2023-03-23T03:37:49;10.20;99.90
7028;DHT22;3555;53.248;10.336;2023-03-23T03:40:19;10.20;99.90
7028;DHT22;3555;53.248;10.336;2023-03-23T03:42:46;10.20;99.90
7028;DHT22;3555;53.248;10.336;2023-03-23T03:45:15;10.20;99.90
7028;DHT22;3555;53.248;10.336;2023-03-23T03:47:42;10.20;99.90
7028;DHT22;3555;53.248;10.336;2023-03-23T03:50:10;10.20;99.90
7028;DHT22;3555;53.248;10.336;2023-03-23T03:52:37;10.30;99.90
7028;DHT22;3555;53.248;10.336;2023-03-23T03:55:08;10.30;99.90
7028;DHT22;3555;53.248;10.336;2023-03-23T03:57:36;10.20;99.90
7028;DHT22;3555;53.248;10.336;2023-03-23T04:00:04;10.20;99.90
7028;DHT22;3555;53.248;10.336;2023-03-23T04:02:43;10.20;99.90
7028;DHT22;3555;53.248;10.336;2023-03-23T04:05:13;10.20;99.90
7028;DHT22;3555;53.248;10.336;2023-03-23T04:07:40;10.20;99.90
7028;DHT22;3555;53.248;10.336;2023-03-23T04:10:10;10.20;99.90
7028;DHT22;3555;53.248;10.336;2023-03-23T04:12:38;10.20;99.90
7028;DHT22;3555;53.248;10.336;2023-03-23T04:15:06;10.20;99.90
7028;DHT22;3555;53.248;10.336;2023-03-23T04:17:36;10.10;99.90
7028;DHT22;3555;53.248;10.336;2023-03-23T04:20:04;10.10;99.90
7028;DHT22;3555;53.248;10.336;2023-03-23T04:22:33;10.10;99.90
7028;DHT22;3555;53.248;10.336;2023-03-23T04:25:01;10.10;99.90
7028;DHT22;3555;53.248;10.336;2023-03-23T04:27:32;10.10;99.90
7028;DHT22;3555;53.248;10.336;2023-03-23T04:29:59;10.10;99.90
7028;DHT22;3555;53.248;10.336;2023-03-23T04:32:27;10.10;99.90
7028;DHT22;3555;53.248;10.336;2023-03-23T04:34:55;10.10;99.90
7028;DHT22;3555;53.248;10.336;2023-03-23T04:37:23;10.10;99.90
7028;DHT22;3555;53.248;10.336;2023-03-23T04:39:54;10.10;99.90
7028;DHT22;3555;53.248;10.336;2023-03-23T04:42:26;10.20;99.90
7028;DHT22;3555;53.248;10.336;2023-03-23T04:44:55;10.20;99.90
7028;DHT22;3555;53.248;10.336;2023-03-23T04:47:22;10.20;99.90
7028;DHT22;3555;53.248;10.336;2023-03-23T04:49:49;10.20;99.90
7028;DHT22;3555;53.248;10.336;2023-03-23T04:52:17;10.40;99.90
7028;DHT22;3555;53.248;10.336;2023-03-23T04:54:46;10.30;99.90
7028;DHT22;3555;53.248;10.336;2023-03-23T04:57:13;10.30;99.90
7028;DHT22;3555;53.248;10.336;2023-03-23T04:59:41;10.30;99.90
7028;DHT22;3555;53.248;10.336;2023-03-23T05:02:10;10.30;99.90
7028;DHT22;3555;53.248;10.336;2023-03-23T05:04:38;10.30;99.90
7028;DHT22;3555;53.248;10.336;2023-03-23T05:07:06;10.30;99.90
7028;DHT22;3555;53.248;10.336;2023-03-23T05:09:33;10.30;99.90
7028;DHT22;3555;53.248;10.336;2023-03-23T05:12:04;10.20;99.90
7028;DHT22;3555;53.248;10.336;2023-03-23T05:14:31;10.30;99.90
7028;DHT22;3555;53.248;10.336;2023-03-23T05:16:58;10.30;99.90
7028;DHT22;3555;53.248;10.336;2023-03-23T05:19:26;10.30;99.90
7028;DHT22;3555;53.248;10.336;2023-03-23T05:21:54;10.30;99.90
7028;DHT22;3555;53.248;10.336;2023-03-23T05:24:20;10.30;99.90
7028;DHT22;3555;53.248;10.336;2023-03-23T05:26:47;10.30;99.90
7028;DHT22;3555;53.248;10.336;2023-03-23T05:29:18;10.30;99.90
7028;DHT22;3555;53.248;10.336;2023-03-23T05:31:45;10.20;99.90
7028;DHT22;3555;53.248;10.336;2023-03-23T05:34:13;10.20;99.90
7028;DHT22;3555;53.248;10.336;2023-03-23T05:36:42;10.30;99.90
7028;DHT22;3555;53.248;10.336;2023-03-23T05:39:11;10.30;99.90
7028;DHT22;3555;53.248;10.336;2023-03-23T05:41:39;10.20;99.90
7028;DHT22;3555;53.248;10.336;2023-03-23T05:44:05;10.20;99.90
7028;DHT22;3555;53.248;10.336;2023-03-23T05:46:33;10.20;99.90
7028;DHT22;3555;53.248;10.336;2023-03-23T05:49:00;10.20;99.90
7028;DHT22;3555;53.248;10.336;2023-03-23T05:51:27;10.20;99.90
7028;DHT22;3555;53.248;10.336;2023-03-23T05:53:56;10.20;99.90
7028;DHT22;3555;53.248;10.336;2023-03-23T05:56:23;10.20;99.90
7028;DHT22;3555;53.248;10.336;2023-03-23T05:58:50;10.20;99.90
7028;DHT22;3555;53.248;10.336;2023-03-23T06:01:17;10.20;99.90
7028;DHT22;3555;53.248;10.336;2023-03-23T06:03:44;10.20;99.90
7028;DHT22;3555;53.248;10.336;2023-03-23T06:06:11;10.20;99.90
7028;DHT22;3555;53.248;10.336;2023-03-23T06:08:38;10.20;99.90
7028;DHT22;3555;53.248;10.336;2023-03-23T06:11:06;10.20;99.90
7028;DHT22;3555;53.248;10.336;2023-03-23T06:13:34;10.30;99.90
7028;DHT22;3555;53.248;10.336;2023-03-23T06:16:00;10.20;99.90
7028;DHT22;3555;53.248;10.336;2023-03-23T06:18:27;10.30;99.90
7028;DHT22;3555;53.248;10.336;2023-03-23T06:20:57;10.30;99.90
7028;DHT22;3555;53.248;10.336;2023-03-23T06:23:24;10.30;99.90
7028;DHT22;3555;53.248;10.336;2023-03-23T06:25:53;10.30;99.90
7028;DHT22;3555;53.248;10.336;2023-03-23T06:28:24;10.30;99.90
7028;DHT22;3555;53.248;10.336;2023-03-23T06:30:51;10.40;99.90
7028;DHT22;3555;53.248;10.336;2023-03-23T06:33:18;10.30;99.90
7028;DHT22;3555;53.248;10.336;2023-03-23T06:35:44;10.40;99.90
7028;DHT22;3555;53.248;10.336;2023-03-23T06:38:11;10.50;99.90
7028;DHT22;3555;53.248;10.336;2023-03-23T06:40:38;10.40;99.90
7028;DHT22;3555;53.248;10.336;2023-03-23T06:43:07;10.40;99.90
7028;DHT22;3555;53.248;10.336;2023-03-23T06:45:35;10.40;99.90
7028;DHT22;3555;53.248;10.336;2023-03-23T06:48:02;10.50;99.90
7028;DHT22;3555;53.248;10.336;2023-03-23T06:50:29;10.50;99.90
7028;DHT22;3555;53.248;10.336;2023-03-23T06:52:56;10.60;99.90
7028;DHT22;3555;53.248;10.336;2023-03-23T06:55:22;10.50;99.90
7028;DHT22;3555;53.248;10.336;2023-03-23T06:57:49;10.50;99.90
7028;DHT22;3555;53.248;10.336;2023-03-23T07:00:17;10.60;99.90
7028;DHT22;3555;53.248;10.336;2023-03-23T07:02:45;10.60;99.90
7028;DHT22;3555;53.248;10.336;2023-03-23T07:05:12;10.60;99.90
7028;DHT22;3555;53.248;10.336;2023-03-23T07:07:40;10.60;99.90
7028;DHT22;3555;53.248;10.336;2023-03-23T07:10:09;10.70;99.90
7028;DHT22;3555;53.248;10.336;2023-03-23T07:12:38;10.70;99.90
7028;DHT22;3555;53.248;10.336;2023-03-23T07:15:06;10.70;99.90
7028;DHT22;3555;53.248;10.336;2023-03-23T07:17:35;10.80;99.90
7028;DHT22;3555;53.248;10.336;2023-03-23T07:20:05;10.80;99.90
7028;DHT22;3555;53.248;10.336;2023-03-23T07:22:32;10.90;99.90
7028;DHT22;3555;53.248;10.336;2023-03-23T07:24:59;10.90;99.90
7028;DHT22;3555;53.248;10.336;2023-03-23T07:27:27;10.90;99.90
7028;DHT22;3555;53.248;10.336;2023-03-23T07:29:54;10.90;99.90
7028;DHT22;3555;53.248;10.336;2023-03-23T07:32:21;10.90;99.90
7028;DHT22;3555;53.248;10.336;2023-03-23T07:34:48;10.90;99.90
7028;DHT22;3555;53.248;10.336;2023-03-23T07:37:16;11.00;99.90
7028;DHT22;3555;53.248;10.336;2023-03-23T07:39:43;11.10;99.90
7028;DHT22;3555;53.248;10.336;2023-03-23T07:42:10;11.20;99.90
7028;DHT22;3555;53.248;10.336;2023-03-23T07:44:37;11.20;99.90
7028;DHT22;3555;53.248;10.336;2023-03-23T07:47:04;11.20;99.90
7028;DHT22;3555;53.248;10.336;2023-03-23T07:49:31;11.20;99.90
7028;DHT22;3555;53.248;10.336;2023-03-23T07:51:59;11.00;99.90
7028;DHT22;3555;53.248;10.336;2023-03-23T07:54:28;11.00;99.90
7028;DHT22;3555;53.248;10.336;2023-03-23T07:56:55;10.90;99.90
7028;DHT22;3555;53.248;10.336;2023-03-23T07:59:22;10.90;99.90
7028;DHT22;3555;53.248;10.336;2023-03-23T08:01:48;10.90;99.90
7028;DHT22;3555;53.248;10.336;2023-03-23T08:04:15;10.80;99.90
7028;DHT22;3555;53.248;10.336;2023-03-23T08:06:43;10.90;99.90
7028;DHT22;3555;53.248;10.336;2023-03-23T08:09:09;10.90;99.90
7028;DHT22;3555;53.248;10.336;2023-03-23T08:11:38;10.90;99.90
7028;DHT22;3555;53.248;10.336;2023-03-23T08:14:05;11.10;99.90
7028;DHT22;3555;53.248;10.336;2023-03-23T08:16:32;11.30;99.90
7028;DHT22;3555;53.248;10.336;2023-03-23T08:18:59;11.50;99.90
7028;DHT22;3555;53.248;10.336;2023-03-23T08:21:26;11.80;99.90
7028;DHT22;3555;53.248;10.336;2023-03-23T08:23:54;12.10;99.90
7028;DHT22;3555;53.248;10.336;2023-03-23T08:26:21;12.40;99.90
7028;DHT22;3555;53.248;10.336;2023-03-23T08:28:49;12.40;99.90
7028;DHT22;3555;53.248;10.336;2023-03-23T08:31:16;12.40;99.90
7028;DHT22;3555;53.248;10.336;2023-03-23T08:33:44;12.40;99.90
7028;DHT22;3555;53.248;10.336;2023-03-23T08:36:11;12.50;99.90
7028;DHT22;3555;53.248;10.336;2023-03-23T08:38:37;12.40;99.90
7028;DHT22;3555;53.248;10.336;2023-03-23T08:41:05;12.30;99.90
7028;DHT22;3555;53.248;10.336;2023-03-23T08:43:33;12.30;99.90
7028;DHT22;3555;53.248;10.336;2023-03-23T08:46:01;12.20;99.90
7028;DHT22;3555;53.248;10.336;2023-03-23T08:48:32;12.30;99.90
7028;DHT22;3555;53.248;10.336;2023-03-23T08:51:00;12.20;99.90
7028;DHT22;3555;53.248;10.336;2023-03-23T08:53:27;12.10;99.90
7028;DHT22;3555;53.248;10.336;2023-03-23T08:55:56;12.20;99.90
7028;DHT22;3555;53.248;10.336;2023-03-23T08:58:29;12.10;99.90
7028;DHT22;3555;53.248;10.336;2023-03-23T09:00:56;12.10;99.90
7028;DHT22;3555;53.248;10.336;2023-03-23T09:03:24;12.10;99.90
7028;DHT22;3555;53.248;10.336;2023-03-23T09:05:51;12.10;99.90
7028;DHT22;3555;53.248;10.336;2023-03-23T09:08:19;12.10;99.90
7028;DHT22;3555;53.248;10.336;2023-03-23T09:10:46;12.00;99.90
7028;DHT22;3555;53.248;10.336;2023-03-23T09:13:15;11.80;99.90
7028;DHT22;3555;53.248;10.336;2023-03-23T09:15:41;11.70;99.90
7028;DHT22;3555;53.248;10.336;2023-03-23T09:18:08;11.70;99.90
7028;DHT22;3555;53.248;10.336;2023-03-23T09:20:37;11.80;99.90
7028;DHT22;3555;53.248;10.336;2023-03-23T09:23:04;11.80;99.90
7028;DHT22;3555;53.248;10.336;2023-03-23T09:25:31;11.90;99.90
7028;DHT22;3555;53.248;10.336;2023-03-23T09:27:58;11.90;99.90
7028;DHT22;3555;53.248;10.336;2023-03-23T09:30:27;11.70;99.90
7028;DHT22;3555;53.248;10.336;2023-03-23T09:32:56;11.70;99.90
7028;DHT22;3555;53.248;10.336;2023-03-23T09:35:24;11.60;99.90
7028;DHT22;3555;53.248;10.336;2023-03-23T09:37:52;11.50;99.90
7028;DHT22;3555;53.248;10.336;2023-03-23T09:40:21;11.50;99.90
7028;DHT22;3555;53.248;10.336;2023-03-23T09:42:58;11.50;99.90
7028;DHT22;3555;53.248;10.336;2023-03-23T09:45:33;11.40;99.90
7028;DHT22;3555;53.248;10.336;2023-03-23T09:50:56;11.40;99.90
7028;DHT22;3555;53.248;10.336;2023-03-23T09:53:30;11.40;99.90
7028;DHT22;3555;53.248;10.336;2023-03-23T09:56:00;11.50;99.90
7028;DHT22;3555;53.248;10.336;2023-03-23T09:58:31;11.50;99.90
7028;DHT22;3555;53.248;10.336;2023-03-23T10:01:01;11.50;99.90
7028;DHT22;3555;53.248;10.336;2023-03-23T10:03:33;11.50;99.90
7028;DHT22;3555;53.248;10.336;2023-03-23T10:06:01;11.50;99.90
7028;DHT22;3555;53.248;10.336;2023-03-23T10:08:30;11.50;99.90
7028;DHT22;3555;53.248;10.336;2023-03-23T10:11:02;11.60;99.90
7028;DHT22;3555;53.248;10.336;2023-03-23T10:13:55;11.50;99.90
7028;DHT22;3555;53.248;10.336;2023-03-23T10:16:26;11.50;99.90
7028;DHT22;3555;53.248;10.336;2023-03-23T10:19:00;11.50;99.90
7028;DHT22;3555;53.248;10.336;2023-03-23T10:21:30;11.50;99.90
7028;DHT22;3555;53.248;10.336;2023-03-23T10:24:00;11.60;99.90
7028;DHT22;3555;53.248;10.336;2023-03-23T10:26:33;11.40;99.90
7028;DHT22;3555;53.248;10.336;2023-03-23T10:29:12;11.40;99.90
7028;DHT22;3555;53.248;10.336;2023-03-23T10:31:43;11.40;99.90
7028;DHT22;3555;53.248;10.336;2023-03-23T10:34:15;11.40;99.90
7028;DHT22;3555;53.248;10.336;2023-03-23T10:36:52;11.40;99.90
7028;DHT22;3555;53.248;10.336;2023-03-23T10:39:26;11.50;99.90
7028;DHT22;3555;53.248;10.336;2023-03-23T10:41:54;11.80;99.90
7028;DHT22;3555;53.248;10.336;2023-03-23T10:44:22;11.60;99.90
7028;DHT22;3555;53.248;10.336;2023-03-23T10:46:59;11.60;99.90
7028;DHT22;3555;53.248;10.336;2023-03-23T10:49:29;11.50;99.90
7028;DHT22;3555;53.248;10.336;2023-03-23T10:52:03;11.40;99.90
7028;DHT22;3555;53.248;10.336;2023-03-23T10:54:46;11.40;99.90
7028;DHT22;3555;53.248;10.336;2023-03-23T10:57:21;11.30;99.90
7028;DHT22;3555;53.248;10.336;2023-03-23T10:59:48;11.20;99.90
7028;DHT22;3555;53.248;10.336;2023-03-23T11:02:17;11.20;99.90
7028;DHT22;3555;53.248;10.336;2023-03-23T11:04:46;11.20;99.90
7028;DHT22;3555;53.248;10.336;2023-03-23T11:07:20;11.20;99.90
7028;DHT22;3555;53.248;10.336;2023-03-23T11:09:54;11.10;99.90
7028;DHT22;3555;53.248;10.336;2023-03-23T11:12:23;11.10;99.90
7028;DHT22;3555;53.248;10.336;2023-03-23T11:14:50;11.10;99.90
7028;DHT22;3555;53.248;10.336;2023-03-23T11:17:21;11.20;99.90
7028;DHT22;3555;53.248;10.336;2023-03-23T11:19:48;11.10;99.90
7028;DHT22;3555;53.248;10.336;2023-03-23T11:22:21;11.10;99.90
7028;DHT22;3555;53.248;10.336;2023-03-23T11:24:53;11.10;99.90
7028;DHT22;3555;53.248;10.336;2023-03-23T11:27:22;11.10;99.90
7028;DHT22;3555;53.248;10.336;2023-03-23T11:29:51;11.20;99.90
7028;DHT22;3555;53.248;10.336;2023-03-23T11:32:18;11.30;99.90
7028;DHT22;3555;53.248;10.336;2023-03-23T11:34:48;11.40;99.90
7028;DHT22;3555;53.248;10.336;2023-03-23T11:37:24;11.40;99.90
7028;DHT22;3555;53.248;10.336;2023-03-23T11:39:56;11.60;99.90
7028;DHT22;3555;53.248;10.336;2023-03-23T11:42:25;11.60;99.90
7028;DHT22;3555;53.248;10.336;2023-03-23T11:45:12;11.60;99.90
7028;DHT22;3555;53.248;10.336;2023-03-23T11:47:43;11.60;99.90
7028;DHT22;3555;53.248;10.336;2023-03-23T11:50:17;11.50;99.90
7028;DHT22;3555;53.248;10.336;2023-03-23T11:52:51;11.60;99.90
7028;DHT22;3555;53.248;10.336;2023-03-23T11:55:23;11.60;99.90
7028;DHT22;3555;53.248;10.336;2023-03-23T11:57:52;11.60;99.90
7028;DHT22;3555;53.248;10.336;2023-03-23T12:00:21;11.50;99.90
7028;DHT22;3555;53.248;10.336;2023-03-23T12:02:52;11.50;99.90
7028;DHT22;3555;53.248;10.336;2023-03-23T12:05:38;11.50;99.90
7028;DHT22;3555;53.248;10.336;2023-03-23T12:08:24;11.50;99.90
7028;DHT22;3555;53.248;10.336;2023-03-23T12:11:01;11.60;99.90
7028;DHT22;3555;53.248;10.336;2023-03-23T12:13:41;11.60;99.90
7028;DHT22;3555;53.248;10.336;2023-03-23T12:16:22;11.50;99.90
7028;DHT22;3555;53.248;10.336;2023-03-23T12:18:55;11.60;99.90
7028;DHT22;3555;53.248;10.336;2023-03-23T12:21:32;11.70;99.90
7028;DHT22;3555;53.248;10.336;2023-03-23T12:24:05;11.80;99.90
7028;DHT22;3555;53.248;10.336;2023-03-23T12:26:38;11.90;99.90
7028;DHT22;3555;53.248;10.336;2023-03-23T12:29:32;12.20;99.90
7028;DHT22;3555;53.248;10.336;2023-03-23T12:32:26;12.20;99.90
7028;DHT22;3555;53.248;10.336;2023-03-23T12:35:03;12.30;99.90
7028;DHT22;3555;53.248;10.336;2023-03-23T12:37:44;12.40;99.90
7028;DHT22;3555;53.248;10.336;2023-03-23T12:43:13;12.30;99.90
7028;DHT22;3555;53.248;10.336;2023-03-23T12:49:04;12.30;99.90
7028;DHT22;3555;53.248;10.336;2023-03-23T12:51:35;12.40;99.90
7028;DHT22;3555;53.248;10.336;2023-03-23T12:54:09;12.50;99.90
7028;DHT22;3555;53.248;10.336;2023-03-23T12:56:43;12.50;99.90
7028;DHT22;3555;53.248;10.336;2023-03-23T12:59:19;12.50;99.90
7028;DHT22;3555;53.248;10.336;2023-03-23T13:01:50;12.60;99.90
7028;DHT22;3555;53.248;10.336;2023-03-23T13:04:21;12.40;99.90
7028;DHT22;3555;53.248;10.336;2023-03-23T13:06:49;12.30;99.90
7028;DHT22;3555;53.248;10.336;2023-03-23T13:09:20;12.20;99.90
7028;DHT22;3555;53.248;10.336;2023-03-23T13:11:49;12.10;99.90
7028;DHT22;3555;53.248;10.336;2023-03-23T13:14:29;12.20;99.90
7028;DHT22;3555;53.248;10.336;2023-03-23T13:17:06;12.20;99.90
7028;DHT22;3555;53.248;10.336;2023-03-23T13:20:07;12.40;99.90
7028;DHT22;3555;53.248;10.336;2023-03-23T13:22:44;12.40;99.90
7028;DHT22;3555;53.248;10.336;2023-03-23T13:25:18;12.60;99.90
7028;DHT22;3555;53.248;10.336;2023-03-23T13:27:56;12.70;99.90
7028;DHT22;3555;53.248;10.336;2023-03-23T13:30:25;12.70;99.90
7028;DHT22;3555;53.248;10.336;2023-03-23T13:33:02;12.80;99.90
7028;DHT22;3555;53.248;10.336;2023-03-23T13:35:34;12.80;99.90
7028;DHT22;3555;53.248;10.336;2023-03-23T13:38:02;12.90;99.90
7028;DHT22;3555;53.248;10.336;2023-03-23T13:40:43;13.00;99.90
7028;DHT22;3555;53.248;10.336;2023-03-23T13:43:11;12.80;99.90
7028;DHT22;3555;53.248;10.336;2023-03-23T13:45:45;12.90;99.90
7028;DHT22;3555;53.248;10.336;2023-03-23T13:48:21;13.00;99.90
7028;DHT22;3555;53.248;10.336;2023-03-23T13:50:53;13.00;99.90
7028;DHT22;3555;53.248;10.336;2023-03-23T13:53:27;13.00;99.90
7028;DHT22;3555;53.248;10.336;2023-03-23T13:56:07;13.00;99.90
7028;DHT22;3555;53.248;10.336;2023-03-23T13:58:45;12.60;99.90
7028;DHT22;3555;53.248;10.336;2023-03-23T14:01:16;13.10;99.90
7028;DHT22;3555;53.248;10.336;2023-03-23T14:03:47;13.20;99.90
7028;DHT22;3555;53.248;10.336;2023-03-23T14:06:18;13.20;99.90
7028;DHT22;3555;53.248;10.336;2023-03-23T14:08:48;13.30;99.90
7028;DHT22;3555;53.248;10.336;2023-03-23T14:11:20;13.30;99.90
7028;DHT22;3555;53.248;10.336;2023-03-23T14:14:01;13.20;99.90
7028;DHT22;3555;53.248;10.336;2023-03-23T14:16:37;13.20;99.90
7028;DHT22;3555;53.248;10.336;2023-03-23T14:19:14;13.30;99.90
7028;DHT22;3555;53.248;10.336;2023-03-23T14:21:48;13.30;99.90
7028;DHT22;3555;53.248;10.336;2023-03-23T14:24:17;13.20;99.90
7028;DHT22;3555;53.248;10.336;2023-03-23T14:26:44;13.20;99.90
7028;DHT22;3555;53.248;10.336;2023-03-23T14:29:13;13.30;99.90
7028;DHT22;3555;53.248;10.336;2023-03-23T14:31:41;13.40;99.90
7028;DHT22;3555;53.248;10.336;2023-03-23T14:34:13;13.50;99.90
7028;DHT22;3555;53.248;10.336;2023-03-23T14:36:41;13.60;99.90
7028;DHT22;3555;53.248;10.336;2023-03-23T14:39:17;13.70;99.90
7028;DHT22;3555;53.248;10.336;2023-03-23T14:41:44;13.90;99.90
7028;DHT22;3555;53.248;10.336;2023-03-23T14:44:13;13.90;99.90
7028;DHT22;3555;53.248;10.336;2023-03-23T14:46:43;13.80;99.90
7028;DHT22;3555;53.248;10.336;2023-03-23T14:49:14;13.80;99.90
7028;DHT22;3555;53.248;10.336;2023-03-23T14:51:47;13.70;99.90
7028;DHT22;3555;53.248;10.336;2023-03-23T14:54:14;13.80;99.90
7028;DHT22;3555;53.248;10.336;2023-03-23T14:56:41;13.70;99.90
7028;DHT22;3555;53.248;10.336;2023-03-23T14:59:10;13.80;99.90
7028;DHT22;3555;53.248;10.336;2023-03-23T15:01:38;13.90;99.90
7028;DHT22;3555;53.248;10.336;2023-03-23T15:04:10;13.80;99.90
7028;DHT22;3555;53.248;10.336;2023-03-23T15:06:39;13.60;99.90
7028;DHT22;3555;53.248;10.336;2023-03-23T15:09:11;13.80;99.90
7028;DHT22;3555;53.248;10.336;2023-03-23T15:11:39;13.80;99.90
7028;DHT22;3555;53.248;10.336;2023-03-23T15:14:10;13.80;99.90
7028;DHT22;3555;53.248;10.336;2023-03-23T15:16:45;13.90;99.90
7028;DHT22;3555;53.248;10.336;2023-03-23T15:19:17;13.90;1.00
7028;DHT22;3555;53.248;10.336;2023-03-23T15:21:51;13.70;98.30
7028;DHT22;3555;53.248;10.336;2023-03-23T15:24:32;13.70;99.90
7028;DHT22;3555;53.248;10.336;2023-03-23T15:27:11;13.60;99.90
7028;DHT22;3555;53.248;10.336;2023-03-23T15:29:47;13.50;99.90
7028;DHT22;3555;53.248;10.336;2023-03-23T15:32:21;13.50;99.90
7028;DHT22;3555;53.248;10.336;2023-03-23T15:34:49;13.50;99.90
7028;DHT22;3555;53.248;10.336;2023-03-23T15:37:20;13.50;99.90
7028;DHT22;3555;53.248;10.336;2023-03-23T15:39:47;13.40;99.90
7028;DHT22;3555;53.248;10.336;2023-03-23T15:42:24;13.10;99.90
7028;DHT22;3555;53.248;10.336;2023-03-23T15:47:46;12.30;99.90
7028;DHT22;3555;53.248;10.336;2023-03-23T15:50:16;12.50;99.90
7028;DHT22;3555;53.248;10.336;2023-03-23T15:52:44;12.70;99.90
7028;DHT22;3555;53.248;10.336;2023-03-23T15:55:21;12.90;99.90
7028;DHT22;3555;53.248;10.336;2023-03-23T15:57:49;13.10;99.90
7028;DHT22;3555;53.248;10.336;2023-03-23T16:00:17;13.20;99.90
7028;DHT22;3555;53.248;10.336;2023-03-23T16:02:45;13.00;99.90
7028;DHT22;3555;53.248;10.336;2023-03-23T16:05:13;12.90;99.90
7028;DHT22;3555;53.248;10.336;2023-03-23T16:07:41;12.90;99.90
7028;DHT22;3555;53.248;10.336;2023-03-23T16:10:15;12.80;99.90
7028;DHT22;3555;53.248;10.336;2023-03-23T16:12:42;12.70;99.90
7028;DHT22;3555;53.248;10.336;2023-03-23T16:15:08;12.50;99.90
7028;DHT22;3555;53.248;10.336;2023-03-23T16:17:35;12.40;99.90
7028;DHT22;3555;53.248;10.336;2023-03-23T16:20:10;12.30;99.90
7028;DHT22;3555;53.248;10.336;2023-03-23T16:22:38;12.10;99.90
7028;DHT22;3555;53.248;10.336;2023-03-23T16:25:08;11.90;99.90